sensor_id;sensor_type;location;lat;lon;timestamp;pressure;altitude;pressure_sealevel;temperature;humidity
10060;BME280;5069;49.306;8.636;2022-08-05T00:01:34;99986.56;;;28.46;43.10
10060;BME280;5069;49.306;8.636;2022-08-05T00:04:49;99996.16;;;28.65;43.09
10060;BME280;5069;49.306;8.636;2022-08-05T00:07:56;100011.84;;;28.77;43.77
10060;BME280;5069;49.306;8.636;2022-08-05T00:11:04;100007.94;;;28.72;44.32
10060;BME280;5069;49.306;8.636;2022-08-05T00:14:24;100010.38;;;28.75;44.46
10060;BME280;5069;49.306;8.636;2022-08-05T00:17:29;100014.09;;;28.74;44.38
10060;BME280;5069;49.306;8.636;2022-08-05T00:20:31;100015.63;;;28.68;44.95
10060;BME280;5069;49.306;8.636;2022-08-05T00:23:33;100018.50;;;28.67;44.60
10060;BME280;5069;49.306;8.636;2022-08-05T00:26:47;100014.44;;;28.63;44.67
10060;BME280;5069;49.306;8.636;2022-08-05T00:29:53;100012.63;;;28.55;44.93
10060;BME280;5069;49.306;8.636;2022-08-05T00:32:56;100022.59;;;28.55;45.21
10060;BME280;5069;49.306;8.636;2022-08-05T00:35:58;100020.28;;;28.44;45.50
10060;BME280;5069;49.306;8.636;2022-08-05T00:39:20;100021.69;;;28.31;46.18
10060;BME280;5069;49.306;8.636;2022-08-05T00:42:32;100038.16;;;28.22;47.00
10060;BME280;5069;49.306;8.636;2022-08-05T00:45:33;100034.06;;;28.26;47.14
10060;BME280;5069;49.306;8.636;2022-08-05T00:48:44;100027.47;;;28.12;48.03
10060;BME280;5069;49.306;8.636;2022-08-05T00:51:51;100036.66;;;27.95;48.80
10060;BME280;5069;49.306;8.636;2022-08-05T00:54:53;100033.63;;;27.90;49.31
10060;BME280;5069;49.306;8.636;2022-08-05T00:57:56;100029.22;;;27.81;50.29
10060;BME280;5069;49.306;8.636;2022-08-05T01:00:59;100030.94;;;27.74;50.92
10060;BME280;5069;49.306;8.636;2022-08-05T01:04:01;100027.69;;;27.70;51.18
10060;BME280;5069;49.306;8.636;2022-08-05T01:07:13;100022.97;;;27.56;52.31
10060;BME280;5069;49.306;8.636;2022-08-05T01:10:37;100014.00;;;27.56;52.47
10060;BME280;5069;49.306;8.636;2022-08-05T01:14:12;100003.16;;;27.39;53.53
10060;BME280;5069;49.306;8.636;2022-08-05T01:17:19;99997.38;;;27.34;54.02
10060;BME280;5069;49.306;8.636;2022-08-05T01:20:33;100007.03;;;27.37;53.93
10060;BME280;5069;49.306;8.636;2022-08-05T01:30:27;99974.34;;;27.06;55.68
10060;BME280;5069;49.306;8.636;2022-08-05T01:33:41;99955.06;;;27.01;55.97
10060;BME280;5069;49.306;8.636;2022-08-05T01:36:53;99955.41;;;26.98;56.14
10060;BME280;5069;49.306;8.636;2022-08-05T01:40:01;99962.84;;;26.96;56.34
10060;BME280;5069;49.306;8.636;2022-08-05T01:43:04;99958.63;;;26.93;56.63
10060;BME280;5069;49.306;8.636;2022-08-05T01:46:23;99981.78;;;26.96;56.47
10060;BME280;5069;49.306;8.636;2022-08-05T01:49:49;99988.56;;;27.24;55.07
10060;BME280;5069;49.306;8.636;2022-08-05T01:53:06;99992.97;;;27.09;55.99
10060;BME280;5069;49.306;8.636;2022-08-05T01:56:13;100005.47;;;27.18;55.98
10060;BME280;5069;49.306;8.636;2022-08-05T01:59:38;99983.69;;;27.28;55.29
10060;BME280;5069;49.306;8.636;2022-08-05T02:02:50;99985.03;;;27.16;56.21
10060;BME280;5069;49.306;8.636;2022-08-05T02:05:55;99985.16;;;27.06;56.32
10060;BME280;5069;49.306;8.636;2022-08-05T02:09:00;99981.97;;;27.10;55.91
10060;BME280;5069;49.306;8.636;2022-08-05T02:15:23;99968.44;;;27.35;55.23
10060;BME280;5069;49.306;8.636;2022-08-05T02:19:04;99985.22;;;27.22;55.78
10060;BME280;5069;49.306;8.636;2022-08-05T02:22:18;99985.34;;;27.29;55.58
10060;BME280;5069;49.306;8.636;2022-08-05T02:25:33;100001.44;;;27.22;55.85
10060;BME280;5069;49.306;8.636;2022-08-05T02:28:51;100002.25;;;27.23;55.75
10060;BME280;5069;49.306;8.636;2022-08-05T02:31:56;100011.59;;;27.36;55.20
10060;BME280;5069;49.306;8.636;2022-08-05T02:34:59;100012.94;;;27.24;55.55
10060;BME280;5069;49.306;8.636;2022-08-05T02:38:14;100024.75;;;27.23;55.66
10060;BME280;5069;49.306;8.636;2022-08-05T02:41:22;100034.06;;;27.29;55.16
10060;BME280;5069;49.306;8.636;2022-08-05T02:44:38;100036.44;;;27.40;54.83
10060;BME280;5069;49.306;8.636;2022-08-05T02:47:42;100025.81;;;27.22;55.47
10060;BME280;5069;49.306;8.636;2022-08-05T02:51:05;100013.44;;;27.20;55.44
10060;BME280;5069;49.306;8.636;2022-08-05T02:54:10;100024.44;;;27.10;56.26
10060;BME280;5069;49.306;8.636;2022-08-05T02:57:34;100036.59;;;27.14;55.74
10060;BME280;5069;49.306;8.636;2022-08-05T03:00:58;100052.31;;;27.10;55.67
10060;BME280;5069;49.306;8.636;2022-08-05T03:04:04;100050.63;;;27.09;56.02
10060;BME280;5069;49.306;8.636;2022-08-05T03:07:14;100054.81;;;26.96;56.47
10060;BME280;5069;49.306;8.636;2022-08-05T03:10:36;100039.78;;;27.01;56.02
10060;BME280;5069;49.306;8.636;2022-08-05T03:13:38;100040.63;;;26.94;56.89
10060;BME280;5069;49.306;8.636;2022-08-05T03:16:59;100036.41;;;27.07;55.67
10060;BME280;5069;49.306;8.636;2022-08-05T03:20:01;100034.59;;;27.16;56.12
10060;BME280;5069;49.306;8.636;2022-08-05T03:23:04;100027.97;;;27.19;56.09
10060;BME280;5069;49.306;8.636;2022-08-05T03:26:06;100023.41;;;27.19;55.93
10060;BME280;5069;49.306;8.636;2022-08-05T03:29:28;100012.75;;;27.18;56.77
10060;BME280;5069;49.306;8.636;2022-08-05T03:32:50;99996.69;;;27.16;56.16
10060;BME280;5069;49.306;8.636;2022-08-05T03:35:54;100002.44;;;27.13;56.28
10060;BME280;5069;49.306;8.636;2022-08-05T03:38:57;100021.72;;;27.18;56.40
10060;BME280;5069;49.306;8.636;2022-08-05T03:41:59;100059.59;;;27.10;56.92
10060;BME280;5069;49.306;8.636;2022-08-05T03:45:02;100111.47;;;26.97;56.86
10060;BME280;5069;49.306;8.636;2022-08-05T03:48:25;100141.38;;;26.96;57.23
10060;BME280;5069;49.306;8.636;2022-08-05T03:51:33;100158.13;;;26.73;59.08
10060;BME280;5069;49.306;8.636;2022-08-05T03:55:06;100163.75;;;26.54;60.31
10060;BME280;5069;49.306;8.636;2022-08-05T03:58:33;100134.56;;;26.58;63.13
10060;BME280;5069;49.306;8.636;2022-08-05T04:01:38;100142.97;;;26.55;64.70
10060;BME280;5069;49.306;8.636;2022-08-05T04:04:41;100160.66;;;26.41;65.72
10060;BME280;5069;49.306;8.636;2022-08-05T04:07:45;100187.47;;;26.35;67.94
10060;BME280;5069;49.306;8.636;2022-08-05T04:11:00;100163.38;;;26.06;76.47
10060;BME280;5069;49.306;8.636;2022-08-05T04:14:03;100152.41;;;25.54;82.00
10060;BME280;5069;49.306;8.636;2022-08-05T04:17:04;100172.13;;;25.09;86.32
10060;BME280;5069;49.306;8.636;2022-08-05T04:20:16;100195.03;;;24.86;86.50
10060;BME280;5069;49.306;8.636;2022-08-05T04:23:22;100212.16;;;24.58;88.74
10060;BME280;5069;49.306;8.636;2022-08-05T04:26:45;100215.03;;;24.27;90.12
10060;BME280;5069;49.306;8.636;2022-08-05T04:29:46;100228.06;;;24.03;92.92
10060;BME280;5069;49.306;8.636;2022-08-05T04:32:48;100235.44;;;23.92;95.11
10060;BME280;5069;49.306;8.636;2022-08-05T04:35:50;100245.06;;;23.75;96.24
10060;BME280;5069;49.306;8.636;2022-08-05T04:39:11;100250.69;;;23.62;96.24
10060;BME280;5069;49.306;8.636;2022-08-05T04:42:13;100258.34;;;23.67;96.79
10060;BME280;5069;49.306;8.636;2022-08-05T04:45:14;100265.19;;;23.80;90.50
10060;BME280;5069;49.306;8.636;2022-08-05T04:48:36;100266.28;;;23.87;86.50
10060;BME280;5069;49.306;8.636;2022-08-05T04:51:38;100283.59;;;23.85;86.59
10060;BME280;5069;49.306;8.636;2022-08-05T04:54:39;100292.66;;;23.74;85.93
10060;BME280;5069;49.306;8.636;2022-08-05T04:57:43;100305.69;;;23.79;87.23
10060;BME280;5069;49.306;8.636;2022-08-05T05:00:51;100314.00;;;23.76;85.32
10060;BME280;5069;49.306;8.636;2022-08-05T05:03:53;100327.91;;;23.81;84.96
10060;BME280;5069;49.306;8.636;2022-08-05T05:06:57;100327.22;;;23.79;83.00
10060;BME280;5069;49.306;8.636;2022-08-05T05:09:58;100332.31;;;23.82;82.73
10060;BME280;5069;49.306;8.636;2022-08-05T05:13:04;100335.84;;;23.82;84.51
10060;BME280;5069;49.306;8.636;2022-08-05T05:16:05;100344.06;;;23.81;84.19
10060;BME280;5069;49.306;8.636;2022-08-05T05:19:07;100347.66;;;23.91;83.93
10060;BME280;5069;49.306;8.636;2022-08-05T05:22:20;100347.53;;;24.12;82.72
10060;BME280;5069;49.306;8.636;2022-08-05T05:25:26;100345.31;;;24.26;81.85
10060;BME280;5069;49.306;8.636;2022-08-05T05:28:33;100343.91;;;24.32;79.64
10060;BME280;5069;49.306;8.636;2022-08-05T05:31:43;100348.47;;;24.32;78.83
10060;BME280;5069;49.306;8.636;2022-08-05T05:34:46;100318.13;;;24.29;79.08
10060;BME280;5069;49.306;8.636;2022-08-05T05:37:56;100316.84;;;24.53;76.67
10060;BME280;5069;49.306;8.636;2022-08-05T05:41:02;100320.53;;;24.71;75.61
10060;BME280;5069;49.306;8.636;2022-08-05T05:44:08;100334.13;;;24.79;75.03
10060;BME280;5069;49.306;8.636;2022-08-05T05:47:29;100341.50;;;24.96;75.83
10060;BME280;5069;49.306;8.636;2022-08-05T05:50:50;100344.75;;;25.09;75.26
10060;BME280;5069;49.306;8.636;2022-08-05T05:53:52;100330.59;;;25.35;73.25
10060;BME280;5069;49.306;8.636;2022-08-05T05:56:59;100337.53;;;25.47;73.40
10060;BME280;5069;49.306;8.636;2022-08-05T06:00:08;100327.44;;;25.49;72.32
10060;BME280;5069;49.306;8.636;2022-08-05T06:03:14;100341.22;;;25.46;71.82
10060;BME280;5069;49.306;8.636;2022-08-05T06:06:36;100347.22;;;25.40;69.65
10060;BME280;5069;49.306;8.636;2022-08-05T06:09:42;100341.38;;;25.44;69.49
10060;BME280;5069;49.306;8.636;2022-08-05T06:13:02;100334.16;;;25.45;69.74
10060;BME280;5069;49.306;8.636;2022-08-05T06:16:04;100330.34;;;25.38;69.89
10060;BME280;5069;49.306;8.636;2022-08-05T06:19:26;100326.31;;;25.42;69.72
10060;BME280;5069;49.306;8.636;2022-08-05T06:22:35;100317.25;;;25.43;68.80
10060;BME280;5069;49.306;8.636;2022-08-05T06:25:40;100324.19;;;25.45;67.06
10060;BME280;5069;49.306;8.636;2022-08-05T06:29:02;100307.00;;;25.56;67.33
10060;BME280;5069;49.306;8.636;2022-08-05T06:32:23;100305.81;;;25.59;68.48
10060;BME280;5069;49.306;8.636;2022-08-05T06:35:29;100316.59;;;25.68;69.33
10060;BME280;5069;49.306;8.636;2022-08-05T06:38:51;100322.78;;;25.78;68.20
10060;BME280;5069;49.306;8.636;2022-08-05T06:41:56;100327.47;;;25.76;67.96
10060;BME280;5069;49.306;8.636;2022-08-05T06:44:59;100328.47;;;25.75;68.31
10060;BME280;5069;49.306;8.636;2022-08-05T06:48:05;100319.38;;;25.76;67.47
10060;BME280;5069;49.306;8.636;2022-08-05T06:51:28;100326.00;;;25.91;66.90
10060;BME280;5069;49.306;8.636;2022-08-05T06:54:31;100331.03;;;26.22;64.86
10060;BME280;5069;49.306;8.636;2022-08-05T06:57:36;100336.38;;;26.31;62.91
10060;BME280;5069;49.306;8.636;2022-08-05T07:00:58;100331.25;;;26.11;64.29
10060;BME280;5069;49.306;8.636;2022-08-05T07:04:00;100337.47;;;26.39;63.39
10060;BME280;5069;49.306;8.636;2022-08-05T07:07:03;100338.41;;;26.65;62.50
10060;BME280;5069;49.306;8.636;2022-08-05T07:10:08;100342.72;;;26.76;61.17
10060;BME280;5069;49.306;8.636;2022-08-05T07:13:15;100344.22;;;26.88;60.80
10060;BME280;5069;49.306;8.636;2022-08-05T07:16:59;100351.63;;;27.11;59.80
10060;BME280;5069;49.306;8.636;2022-08-05T07:20:21;100358.03;;;27.28;58.73
10060;BME280;5069;49.306;8.636;2022-08-05T07:23:39;100358.59;;;27.40;57.95
10060;BME280;5069;49.306;8.636;2022-08-05T07:26:52;100362.78;;;27.34;56.38
10060;BME280;5069;49.306;8.636;2022-08-05T07:29:56;100367.19;;;27.35;57.79
10060;BME280;5069;49.306;8.636;2022-08-05T07:33:18;100368.75;;;27.64;57.26
10060;BME280;5069;49.306;8.636;2022-08-05T07:36:37;100370.31;;;27.74;54.94
10060;BME280;5069;49.306;8.636;2022-08-05T07:39:39;100374.56;;;27.77;54.60
10060;BME280;5069;49.306;8.636;2022-08-05T07:43:00;100389.75;;;27.70;55.08
10060;BME280;5069;49.306;8.636;2022-08-05T07:46:21;100386.00;;;27.63;55.04
10060;BME280;5069;49.306;8.636;2022-08-05T07:49:25;100379.25;;;27.67;54.41
10060;BME280;5069;49.306;8.636;2022-08-05T07:52:27;100376.50;;;27.59;55.86
10060;BME280;5069;49.306;8.636;2022-08-05T07:55:28;100377.88;;;27.63;53.88
10060;BME280;5069;49.306;8.636;2022-08-05T07:58:51;100373.66;;;27.68;55.38
10060;BME280;5069;49.306;8.636;2022-08-05T08:01:59;100374.13;;;27.98;53.45
10060;BME280;5069;49.306;8.636;2022-08-05T08:05:03;100379.78;;;28.12;53.26
10060;BME280;5069;49.306;8.636;2022-08-05T08:08:05;100370.69;;;28.13;53.36
10060;BME280;5069;49.306;8.636;2022-08-05T08:11:12;100367.13;;;28.21;53.36
10060;BME280;5069;49.306;8.636;2022-08-05T08:14:16;100385.22;;;28.12;52.46
10060;BME280;5069;49.306;8.636;2022-08-05T08:17:19;100388.22;;;28.01;52.88
10060;BME280;5069;49.306;8.636;2022-08-05T08:20:23;100384.47;;;27.94;54.09
10060;BME280;5069;49.306;8.636;2022-08-05T08:23:45;100383.44;;;27.95;53.97
10060;BME280;5069;49.306;8.636;2022-08-05T08:27:05;100368.50;;;27.83;54.01
10060;BME280;5069;49.306;8.636;2022-08-05T08:30:08;100365.09;;;27.81;53.98
10060;BME280;5069;49.306;8.636;2022-08-05T08:33:32;100337.41;;;28.03;53.69
10060;BME280;5069;49.306;8.636;2022-08-05T08:36:39;100321.19;;;28.11;54.06
10060;BME280;5069;49.306;8.636;2022-08-05T08:39:52;100311.06;;;28.13;53.46
10060;BME280;5069;49.306;8.636;2022-08-05T08:42:54;100287.50;;;28.22;54.05
10060;BME280;5069;49.306;8.636;2022-08-05T08:45:57;100270.06;;;28.32;53.56
10060;BME280;5069;49.306;8.636;2022-08-05T08:49:01;100277.19;;;28.33;53.84
10060;BME280;5069;49.306;8.636;2022-08-05T08:52:28;100272.78;;;28.32;53.26
10060;BME280;5069;49.306;8.636;2022-08-05T08:55:30;100254.50;;;28.34;51.92
10060;BME280;5069;49.306;8.636;2022-08-05T08:58:54;100258.03;;;28.19;51.05
10060;BME280;5069;49.306;8.636;2022-08-05T09:02:04;100261.53;;;28.03;51.48
10060;BME280;5069;49.306;8.636;2022-08-05T09:05:10;100254.13;;;28.21;50.23
10060;BME280;5069;49.306;8.636;2022-08-05T09:08:18;100245.34;;;28.35;49.09
10060;BME280;5069;49.306;8.636;2022-08-05T09:11:27;100257.03;;;28.52;48.95
10060;BME280;5069;49.306;8.636;2022-08-05T09:14:48;100262.44;;;28.60;48.00
10060;BME280;5069;49.306;8.636;2022-08-05T09:18:06;100274.50;;;28.58;45.76
10060;BME280;5069;49.306;8.636;2022-08-05T09:21:09;100277.69;;;28.61;46.28
10060;BME280;5069;49.306;8.636;2022-08-05T09:24:21;100282.94;;;28.55;46.50
10060;BME280;5069;49.306;8.636;2022-08-05T09:27:32;100295.19;;;28.75;45.49
10060;BME280;5069;49.306;8.636;2022-08-05T09:31:14;100311.09;;;28.62;44.89
10060;BME280;5069;49.306;8.636;2022-08-05T09:34:52;100317.53;;;28.53;45.28
10060;BME280;5069;49.306;8.636;2022-08-05T09:37:55;100325.00;;;28.51;43.85
10060;BME280;5069;49.306;8.636;2022-08-05T09:41:17;100328.72;;;28.42;44.12
10060;BME280;5069;49.306;8.636;2022-08-05T09:47:39;100326.38;;;28.79;43.30
10060;BME280;5069;49.306;8.636;2022-08-05T09:51:00;100327.06;;;28.97;43.05
10060;BME280;5069;49.306;8.636;2022-08-05T09:54:02;100320.06;;;29.11;42.84
10060;BME280;5069;49.306;8.636;2022-08-05T09:57:05;100317.00;;;29.14;42.58
10060;BME280;5069;49.306;8.636;2022-08-05T10:00:24;100308.03;;;29.05;42.45
10060;BME280;5069;49.306;8.636;2022-08-05T10:03:27;100301.91;;;29.20;42.63
10060;BME280;5069;49.306;8.636;2022-08-05T10:06:54;100298.81;;;29.23;42.40
10060;BME280;5069;49.306;8.636;2022-08-05T10:10:00;100300.19;;;29.35;41.96
10060;BME280;5069;49.306;8.636;2022-08-05T10:16:49;100309.09;;;29.60;42.04
10060;BME280;5069;49.306;8.636;2022-08-05T10:19:53;100304.75;;;29.81;41.51
10060;BME280;5069;49.306;8.636;2022-08-05T10:23:17;100313.16;;;30.03;41.17
10060;BME280;5069;49.306;8.636;2022-08-05T10:26:43;100307.94;;;30.24;40.56
10060;BME280;5069;49.306;8.636;2022-08-05T10:29:51;100310.66;;;29.85;41.32
10060;BME280;5069;49.306;8.636;2022-08-05T10:33:13;100306.78;;;29.79;41.91
10060;BME280;5069;49.306;8.636;2022-08-05T10:36:15;100314.19;;;30.02;41.29
10060;BME280;5069;49.306;8.636;2022-08-05T10:39:28;100312.09;;;30.12;40.08
10060;BME280;5069;49.306;8.636;2022-08-05T10:42:53;100322.50;;;30.31;39.42
10060;BME280;5069;49.306;8.636;2022-08-05T10:45:57;100314.84;;;30.04;40.00
10060;BME280;5069;49.306;8.636;2022-08-05T10:49:07;100310.13;;;29.97;39.52
10060;BME280;5069;49.306;8.636;2022-08-05T10:52:46;100314.03;;;30.26;39.25
10060;BME280;5069;49.306;8.636;2022-08-05T10:56:04;100307.16;;;30.38;39.06
10060;BME280;5069;49.306;8.636;2022-08-05T10:59:30;100302.69;;;30.45;38.73
10060;BME280;5069;49.306;8.636;2022-08-05T11:06:25;100303.44;;;30.31;39.32
10060;BME280;5069;49.306;8.636;2022-08-05T11:09:53;100302.69;;;30.45;39.22
10060;BME280;5069;49.306;8.636;2022-08-05T11:13:39;100307.16;;;30.61;39.06
10060;BME280;5069;49.306;8.636;2022-08-05T11:20:47;100319.16;;;30.74;39.17
10060;BME280;5069;49.306;8.636;2022-08-05T11:23:52;100321.44;;;30.63;39.78
10060;BME280;5069;49.306;8.636;2022-08-05T11:27:30;100321.53;;;30.92;39.50
10060;BME280;5069;49.306;8.636;2022-08-05T11:34:01;100330.97;;;30.82;39.74
10060;BME280;5069;49.306;8.636;2022-08-05T11:37:04;100324.13;;;30.86;39.80
10060;BME280;5069;49.306;8.636;2022-08-05T11:44:20;100326.31;;;31.42;38.84
10060;BME280;5069;49.306;8.636;2022-08-05T11:47:43;100330.72;;;31.14;39.55
10060;BME280;5069;49.306;8.636;2022-08-05T11:50:51;100339.78;;;31.06;39.71
10060;BME280;5069;49.306;8.636;2022-08-05T11:53:54;100333.34;;;30.99;40.04
10060;BME280;5069;49.306;8.636;2022-08-05T11:56:56;100330.63;;;30.85;39.48
10060;BME280;5069;49.306;8.636;2022-08-05T12:00:02;100342.69;;;31.05;39.95
10060;BME280;5069;49.306;8.636;2022-08-05T12:03:16;100334.19;;;30.62;40.89
10060;BME280;5069;49.306;8.636;2022-08-05T12:06:34;100345.53;;;30.43;41.50
10060;BME280;5069;49.306;8.636;2022-08-05T12:09:52;100347.00;;;30.76;41.17
10060;BME280;5069;49.306;8.636;2022-08-05T12:13:02;100352.16;;;30.71;41.96
10060;BME280;5069;49.306;8.636;2022-08-05T12:16:17;100349.47;;;31.09;41.11
10060;BME280;5069;49.306;8.636;2022-08-05T12:19:19;100350.34;;;30.87;43.06
10060;BME280;5069;49.306;8.636;2022-08-05T12:22:43;100347.44;;;30.65;44.17
10060;BME280;5069;49.306;8.636;2022-08-05T12:25:51;100347.16;;;30.29;44.89
10060;BME280;5069;49.306;8.636;2022-08-05T12:28:53;100349.59;;;30.24;45.92
10060;BME280;5069;49.306;8.636;2022-08-05T12:31:59;100348.78;;;30.08;46.88
10060;BME280;5069;49.306;8.636;2022-08-05T12:35:03;100344.34;;;29.76;47.11
10060;BME280;5069;49.306;8.636;2022-08-05T12:38:08;100351.47;;;29.77;47.57
10060;BME280;5069;49.306;8.636;2022-08-05T12:41:12;100355.50;;;30.28;46.00
10060;BME280;5069;49.306;8.636;2022-08-05T12:44:15;100358.94;;;30.22;46.13
10060;BME280;5069;49.306;8.636;2022-08-05T12:47:37;100369.06;;;29.97;47.37
10060;BME280;5069;49.306;8.636;2022-08-05T12:51:12;100366.28;;;30.13;46.74
10060;BME280;5069;49.306;8.636;2022-08-05T12:54:34;100362.44;;;30.00;46.61
10060;BME280;5069;49.306;8.636;2022-08-05T12:57:37;100372.09;;;30.02;46.55
10060;BME280;5069;49.306;8.636;2022-08-05T13:00:58;100370.28;;;29.86;47.26
10060;BME280;5069;49.306;8.636;2022-08-05T13:04:20;100378.63;;;29.93;47.24
10060;BME280;5069;49.306;8.636;2022-08-05T13:07:25;100376.63;;;30.18;46.33
10060;BME280;5069;49.306;8.636;2022-08-05T13:10:47;100381.25;;;30.40;45.51
10060;BME280;5069;49.306;8.636;2022-08-05T13:13:52;100391.34;;;30.01;46.51
10060;BME280;5069;49.306;8.636;2022-08-05T13:17:25;100391.31;;;30.31;45.82
10060;BME280;5069;49.306;8.636;2022-08-05T13:20:42;100405.16;;;30.22;45.61
10060;BME280;5069;49.306;8.636;2022-08-05T13:23:45;100401.13;;;30.10;46.52
10060;BME280;5069;49.306;8.636;2022-08-05T13:26:52;100409.41;;;29.69;47.19
10060;BME280;5069;49.306;8.636;2022-08-05T13:29:54;100420.53;;;29.43;47.21
10060;BME280;5069;49.306;8.636;2022-08-05T13:33:15;100403.69;;;29.48;46.99
10060;BME280;5069;49.306;8.636;2022-08-05T13:36:37;100405.03;;;29.28;47.54
10060;BME280;5069;49.306;8.636;2022-08-05T13:39:40;100403.38;;;29.18;48.01
10060;BME280;5069;49.306;8.636;2022-08-05T13:43:01;100405.41;;;29.08;48.88
10060;BME280;5069;49.306;8.636;2022-08-05T13:46:03;100391.81;;;29.00;48.79
10060;BME280;5069;49.306;8.636;2022-08-05T13:49:04;100397.72;;;28.71;49.51
10060;BME280;5069;49.306;8.636;2022-08-05T13:52:15;100396.09;;;28.87;49.55
10060;BME280;5069;49.306;8.636;2022-08-05T13:55:16;100397.25;;;28.84;49.72
10060;BME280;5069;49.306;8.636;2022-08-05T13:58:38;100390.66;;;28.87;49.80
10060;BME280;5069;49.306;8.636;2022-08-05T14:01:39;100380.97;;;29.08;48.64
10060;BME280;5069;49.306;8.636;2022-08-05T14:04:57;100376.31;;;29.66;47.24
10060;BME280;5069;49.306;8.636;2022-08-05T14:08:13;100375.09;;;29.68;46.87
10060;BME280;5069;49.306;8.636;2022-08-05T14:11:28;100371.72;;;29.66;46.66
10060;BME280;5069;49.306;8.636;2022-08-05T14:14:31;100370.66;;;29.75;46.80
10060;BME280;5069;49.306;8.636;2022-08-05T14:17:34;100355.09;;;30.08;45.93
10060;BME280;5069;49.306;8.636;2022-08-05T14:20:35;100356.19;;;30.30;45.80
10060;BME280;5069;49.306;8.636;2022-08-05T14:23:37;100350.28;;;30.49;45.19
10060;BME280;5069;49.306;8.636;2022-08-05T14:26:39;100345.59;;;30.04;45.90
10060;BME280;5069;49.306;8.636;2022-08-05T14:29:56;100351.53;;;30.08;45.56
10060;BME280;5069;49.306;8.636;2022-08-05T14:32:59;100343.06;;;30.03;45.51
10060;BME280;5069;49.306;8.636;2022-08-05T14:36:02;100345.75;;;30.11;43.22
10060;BME280;5069;49.306;8.636;2022-08-05T14:39:04;100342.09;;;29.95;44.26
10060;BME280;5069;49.306;8.636;2022-08-05T14:42:11;100345.69;;;29.80;45.48
10060;BME280;5069;49.306;8.636;2022-08-05T14:45:22;100348.59;;;29.78;45.78
10060;BME280;5069;49.306;8.636;2022-08-05T14:48:23;100342.22;;;29.55;46.39
10060;BME280;5069;49.306;8.636;2022-08-05T14:51:37;100349.31;;;29.72;46.33
10060;BME280;5069;49.306;8.636;2022-08-05T14:54:43;100347.84;;;29.53;46.51
10060;BME280;5069;49.306;8.636;2022-08-05T14:57:53;100353.16;;;29.39;46.02
10060;BME280;5069;49.306;8.636;2022-08-05T15:00:57;100344.97;;;29.47;46.40
10060;BME280;5069;49.306;8.636;2022-08-05T15:04:02;100348.22;;;29.42;46.18
10060;BME280;5069;49.306;8.636;2022-08-05T15:07:03;100349.47;;;29.63;45.58
10060;BME280;5069;49.306;8.636;2022-08-05T15:10:05;100354.06;;;29.62;46.04
10060;BME280;5069;49.306;8.636;2022-08-05T15:13:10;100356.19;;;29.44;46.75
10060;BME280;5069;49.306;8.636;2022-08-05T15:16:11;100359.28;;;29.33;46.65
10060;BME280;5069;49.306;8.636;2022-08-05T15:19:13;100366.38;;;29.17;46.92
10060;BME280;5069;49.306;8.636;2022-08-05T15:22:24;100363.84;;;29.00;47.57
10060;BME280;5069;49.306;8.636;2022-08-05T15:25:28;100369.81;;;28.87;47.32
10060;BME280;5069;49.306;8.636;2022-08-05T15:28:49;100375.06;;;28.81;47.75
10060;BME280;5069;49.306;8.636;2022-08-05T15:31:52;100379.13;;;28.85;47.56
10060;BME280;5069;49.306;8.636;2022-08-05T15:34:53;100377.94;;;28.79;47.70
10060;BME280;5069;49.306;8.636;2022-08-05T15:37:55;100392.16;;;28.65;47.95
10060;BME280;5069;49.306;8.636;2022-08-05T15:41:17;100386.41;;;28.84;47.73
10060;BME280;5069;49.306;8.636;2022-08-05T15:44:27;100399.47;;;28.97;47.62
10060;BME280;5069;49.306;8.636;2022-08-05T15:47:31;100402.88;;;28.91;48.44
10060;BME280;5069;49.306;8.636;2022-08-05T15:50:36;100402.00;;;28.74;51.16
10060;BME280;5069;49.306;8.636;2022-08-05T15:53:38;100404.66;;;28.50;52.52
10060;BME280;5069;49.306;8.636;2022-08-05T15:56:51;100409.34;;;28.23;53.67
10060;BME280;5069;49.306;8.636;2022-08-05T15:59:54;100417.72;;;28.12;54.25
10060;BME280;5069;49.306;8.636;2022-08-05T16:02:58;100417.81;;;27.94;54.94
10060;BME280;5069;49.306;8.636;2022-08-05T16:06:00;100418.91;;;27.76;55.65
10060;BME280;5069;49.306;8.636;2022-08-05T16:09:02;100437.41;;;27.54;56.58
10060;BME280;5069;49.306;8.636;2022-08-05T16:12:04;100435.94;;;27.42;57.04
10060;BME280;5069;49.306;8.636;2022-08-05T16:15:06;100440.47;;;27.34;57.80
10060;BME280;5069;49.306;8.636;2022-08-05T16:18:09;100451.09;;;27.09;58.29
10060;BME280;5069;49.306;8.636;2022-08-05T16:21:14;100465.44;;;27.28;58.06
10060;BME280;5069;49.306;8.636;2022-08-05T16:24:16;100463.97;;;27.33;57.61
10060;BME280;5069;49.306;8.636;2022-08-05T16:27:38;100468.59;;;27.23;58.35
10060;BME280;5069;49.306;8.636;2022-08-05T16:31:00;100478.13;;;27.27;57.52
10060;BME280;5069;49.306;8.636;2022-08-05T16:34:01;100487.59;;;27.05;58.46
10060;BME280;5069;49.306;8.636;2022-08-05T16:37:06;100479.25;;;26.71;59.32
10060;BME280;5069;49.306;8.636;2022-08-05T16:40:27;100483.88;;;26.61;59.63
10060;BME280;5069;49.306;8.636;2022-08-05T16:43:31;100483.13;;;26.87;58.89
10060;BME280;5069;49.306;8.636;2022-08-05T16:46:33;100488.25;;;26.90;58.64
10060;BME280;5069;49.306;8.636;2022-08-05T16:49:36;100490.97;;;26.62;59.73
10060;BME280;5069;49.306;8.636;2022-08-05T16:52:41;100492.56;;;26.83;59.19
10060;BME280;5069;49.306;8.636;2022-08-05T16:55:46;100502.69;;;26.81;58.96
10060;BME280;5069;49.306;8.636;2022-08-05T16:58:47;100503.28;;;26.74;59.36
10060;BME280;5069;49.306;8.636;2022-08-05T17:01:49;100506.59;;;26.68;59.17
10060;BME280;5069;49.306;8.636;2022-08-05T17:04:55;100506.47;;;26.70;58.62
10060;BME280;5069;49.306;8.636;2022-08-05T17:07:57;100509.81;;;26.54;58.62
10060;BME280;5069;49.306;8.636;2022-08-05T17:10:59;100520.84;;;26.70;57.79
10060;BME280;5069;49.306;8.636;2022-08-05T17:14:00;100522.97;;;26.40;54.92
10060;BME280;5069;49.306;8.636;2022-08-05T17:17:06;100528.47;;;26.11;55.68
10060;BME280;5069;49.306;8.636;2022-08-05T17:20:15;100517.13;;;25.98;55.44